createdAt,value
2017-09-30T00:00:46.094Z,41.86
2017-09-30T00:03:13.294Z,41.86
2017-09-30T00:05:42.224Z,41.89
2017-09-30T00:08:09.488Z,41.93
2017-09-30T00:10:37.131Z,42.00
2017-09-30T00:13:04.394Z,41.97
2017-09-30T00:15:31.561Z,42.03
2017-09-30T00:17:58.772Z,42.02
2017-09-30T00:20:26.090Z,42.06
2017-09-30T00:22:53.304Z,42.16
2017-09-30T00:25:20.512Z,42.04
2017-09-30T00:27:47.923Z,42.19
2017-09-30T00:30:15.129Z,42.17
2017-09-30T00:32:44.937Z,42.33
2017-09-30T00:37:45.608Z,42.25
2017-09-30T00:40:12.835Z,42.17
2017-09-30T00:42:40.091Z,42.29
2017-09-30T00:45:07.341Z,42.23
2017-09-30T00:47:34.487Z,42.33
2017-09-30T00:50:01.709Z,42.30
2017-09-30T00:52:28.893Z,42.26
2017-09-30T00:54:56.166Z,42.27
2017-09-30T00:57:29.186Z,42.35
2017-09-30T00:59:57.339Z,42.38
2017-09-30T01:02:24.586Z,42.38
2017-09-30T01:04:51.816Z,42.37
2017-09-30T01:07:18.994Z,42.43
2017-09-30T01:09:46.194Z,42.41
2017-09-30T01:12:18.470Z,42.48
2017-09-30T01:14:45.790Z,42.41
2017-09-30T01:17:18.881Z,42.40
2017-09-30T01:19:46.102Z,42.44
2017-09-30T01:22:13.382Z,42.46
2017-09-30T01:24:40.532Z,42.43
2017-09-30T01:27:07.853Z,42.49
2017-09-30T01:29:35.094Z,42.50
2017-09-30T01:32:03.757Z,42.45
2017-09-30T01:34:30.951Z,42.45
2017-09-30T01:37:03.226Z,42.51
2017-09-30T01:39:30.513Z,42.57
2017-09-30T01:41:57.687Z,42.59
2017-09-30T01:44:24.994Z,42.58
2017-09-30T01:46:52.161Z,42.53
2017-09-30T01:49:19.505Z,42.57
2017-09-30T01:51:46.670Z,42.54
2017-09-30T01:54:13.953Z,42.55
2017-09-30T01:56:46.288Z,42.56
2017-09-30T01:59:13.699Z,42.58
2017-09-30T02:01:40.900Z,42.57
2017-09-30T02:04:08.096Z,42.62
2017-09-30T02:06:35.355Z,42.61
2017-09-30T02:09:02.580Z,42.62
2017-09-30T02:11:30.573Z,42.62
2017-09-30T02:13:57.781Z,42.70
2017-09-30T02:16:25.201Z,42.78
2017-09-30T02:18:52.541Z,42.71
2017-09-30T02:21:19.856Z,42.75
2017-09-30T02:23:47.046Z,42.71
2017-09-30T02:26:14.249Z,42.74
2017-09-30T02:28:41.496Z,42.76
2017-09-30T02:51:40.225Z,42.68
2017-09-30T02:54:07.458Z,42.65
2017-09-30T02:56:34.666Z,42.65
2017-09-30T02:59:01.867Z,42.62
2017-09-30T03:01:29.099Z,42.61
2017-09-30T03:03:56.331Z,42.60
2017-09-30T03:06:23.489Z,42.67
2017-09-30T03:08:50.704Z,42.55
2017-09-30T03:11:17.920Z,42.53
2017-09-30T03:13:45.127Z,42.58
2017-09-30T03:16:12.378Z,42.61
2017-09-30T03:18:39.618Z,42.53
2017-09-30T03:21:07.196Z,42.54
2017-09-30T03:23:34.485Z,42.56
2017-09-30T03:26:01.708Z,42.51
2017-09-30T03:28:28.890Z,42.57
2017-09-30T03:30:56.103Z,42.53
2017-09-30T03:33:23.264Z,42.54
2017-09-30T03:35:50.520Z,42.59
2017-09-30T03:38:17.758Z,42.50
2017-09-30T03:40:44.993Z,42.55
2017-09-30T03:43:12.158Z,42.49
2017-09-30T03:45:39.362Z,42.44
2017-09-30T03:48:06.596Z,42.56
2017-09-30T03:50:33.987Z,42.54
2017-09-30T03:53:01.201Z,42.56
2017-09-30T03:55:28.454Z,42.47
2017-09-30T03:57:55.696Z,42.45
2017-09-30T04:00:22.897Z,42.50
2017-09-30T04:02:50.094Z,42.54
2017-09-30T04:05:17.305Z,42.54
2017-09-30T04:07:44.518Z,42.51
2017-09-30T04:10:11.831Z,42.53
2017-09-30T04:12:39.003Z,42.55
2017-09-30T04:15:06.216Z,42.52
2017-09-30T04:17:33.441Z,42.53
2017-09-30T04:20:01.302Z,42.49
2017-09-30T04:22:28.447Z,42.49
2017-09-30T04:24:55.631Z,42.64
2017-09-30T04:27:22.877Z,42.60
2017-09-30T04:29:50.202Z,42.59
2017-09-30T04:32:17.450Z,42.62
2017-09-30T04:34:44.684Z,42.53
2017-09-30T04:37:11.981Z,42.42
2017-09-30T04:39:39.242Z,42.53
2017-09-30T04:42:06.426Z,42.45
2017-09-30T04:44:33.682Z,42.45
2017-09-30T04:47:00.929Z,42.48
2017-09-30T04:49:28.262Z,42.41
2017-09-30T04:51:55.428Z,42.49
2017-09-30T04:54:22.657Z,42.39
2017-09-30T04:56:49.928Z,42.50
2017-09-30T04:59:17.186Z,42.43
2017-09-30T05:01:44.380Z,42.44
2017-09-30T05:04:11.692Z,42.40
2017-09-30T05:06:38.985Z,42.44
2017-09-30T05:09:06.174Z,42.42
2017-09-30T05:11:33.461Z,42.42
2017-09-30T05:14:00.704Z,42.43
2017-09-30T05:16:28.032Z,42.44
2017-09-30T05:18:55.285Z,42.37
2017-09-30T05:21:22.513Z,42.40
2017-09-30T05:23:49.825Z,42.49
2017-09-30T05:26:17.069Z,42.48
2017-09-30T05:28:44.278Z,42.56
2017-09-30T05:31:11.562Z,42.53
2017-09-30T05:33:38.726Z,42.53
2017-09-30T05:36:05.927Z,42.46
2017-09-30T05:38:33.159Z,42.52
2017-09-30T05:41:00.433Z,42.46
2017-09-30T05:43:27.678Z,42.49
2017-09-30T05:45:54.870Z,42.42
2017-09-30T05:48:22.155Z,42.42
2017-09-30T05:50:49.350Z,42.58
2017-09-30T05:53:16.494Z,42.51
2017-09-30T05:55:43.758Z,42.57
2017-09-30T05:58:11.130Z,42.42
2017-09-30T06:00:38.354Z,42.45
2017-09-30T06:03:05.579Z,42.41
2017-09-30T06:05:32.823Z,42.51
2017-09-30T06:08:00.064Z,42.45
2017-09-30T06:10:27.337Z,42.50
2017-09-30T06:12:54.601Z,42.34
2017-09-30T06:15:21.800Z,42.40
2017-09-30T06:17:49.353Z,42.49
2017-09-30T06:20:16.553Z,42.32
2017-09-30T06:22:43.734Z,42.35
2017-09-30T06:25:10.957Z,42.28
2017-09-30T06:27:38.210Z,42.27
2017-09-30T06:30:05.442Z,42.23
2017-09-30T06:32:32.604Z,42.28
2017-09-30T06:34:59.883Z,42.17
2017-09-30T06:37:27.276Z,42.27
2017-09-30T06:39:54.566Z,42.28
2017-09-30T06:42:21.880Z,42.17
2017-09-30T06:44:49.123Z,42.11
2017-09-30T06:47:16.492Z,42.10
2017-09-30T06:49:43.710Z,42.01
2017-09-30T06:52:10.932Z,41.93
2017-09-30T06:54:38.090Z,41.95
2017-09-30T06:57:05.560Z,41.75
2017-09-30T06:59:32.792Z,41.75
2017-09-30T07:02:00.055Z,41.64
2017-09-30T07:04:27.293Z,41.43
2017-09-30T07:06:54.486Z,41.33
2017-09-30T07:09:21.719Z,41.44
2017-09-30T07:11:48.900Z,41.22
2017-09-30T07:14:16.308Z,41.36
2017-09-30T07:16:44.534Z,41.33
2017-09-30T07:19:11.746Z,41.24
2017-09-30T07:21:38.969Z,41.13
2017-09-30T07:24:06.233Z,41.16
2017-09-30T07:26:33.470Z,41.06
2017-09-30T07:29:00.724Z,40.92
2017-09-30T07:31:28.017Z,40.83
2017-09-30T07:33:55.315Z,40.88
2017-09-30T07:36:22.576Z,40.62
2017-09-30T07:38:49.788Z,40.44
2017-09-30T07:41:17.028Z,40.35
2017-09-30T07:43:44.279Z,40.32
2017-09-30T07:46:11.504Z,40.16
2017-09-30T07:48:38.677Z,40.15
2017-09-30T07:51:05.919Z,40.21
2017-09-30T07:53:33.195Z,40.04
2017-09-30T07:56:00.522Z,39.94
2017-09-30T07:58:27.788Z,39.92
2017-09-30T08:00:55.043Z,39.91
2017-09-30T08:03:22.250Z,39.64
2017-09-30T08:05:49.585Z,39.78
2017-09-30T08:08:16.814Z,39.54
2017-09-30T08:10:43.999Z,39.63
2017-09-30T08:13:11.390Z,39.40
2017-09-30T08:15:38.617Z,39.48
2017-09-30T08:18:05.844Z,39.52
2017-09-30T08:20:33.086Z,39.49
2017-09-30T08:23:00.288Z,39.48
2017-09-30T08:25:27.449Z,39.48
2017-09-30T08:27:54.682Z,39.30
2017-09-30T08:30:22.110Z,39.24
2017-09-30T08:32:49.434Z,39.10
2017-09-30T08:35:16.820Z,39.07
2017-09-30T08:37:44.023Z,39.08
2017-09-30T08:40:11.350Z,38.95
2017-09-30T08:42:38.584Z,39.01
2017-09-30T08:45:05.795Z,38.94
2017-09-30T08:47:33.003Z,38.84
2017-09-30T08:50:00.212Z,38.84
2017-09-30T08:52:27.378Z,38.76
2017-09-30T08:54:54.595Z,38.75
2017-09-30T08:57:21.895Z,38.74
2017-09-30T08:59:49.070Z,38.76
2017-09-30T09:02:16.258Z,38.71
2017-09-30T09:04:43.495Z,38.57
2017-09-30T09:07:10.688Z,38.58
2017-09-30T09:09:37.965Z,38.56
2017-09-30T09:12:05.248Z,38.51
2017-09-30T09:14:32.458Z,38.42
2017-09-30T09:16:59.686Z,38.43
2017-09-30T09:19:26.873Z,38.39
2017-09-30T09:21:54.136Z,38.33
2017-09-30T09:24:21.317Z,38.37
2017-09-30T09:26:48.615Z,38.32
2017-09-30T09:29:15.834Z,38.34
2017-09-30T09:31:43.094Z,38.31
2017-09-30T09:34:10.360Z,38.43
2017-09-30T09:36:37.539Z,38.21
2017-09-30T09:39:04.856Z,38.31
2017-09-30T09:41:32.032Z,38.43
2017-09-30T09:43:59.320Z,38.18
2017-09-30T09:46:26.506Z,38.43
2017-09-30T09:48:53.707Z,38.06
2017-09-30T09:51:21.446Z,38.11
2017-09-30T09:53:48.809Z,38.08
2017-09-30T09:56:16.049Z,38.13
2017-09-30T09:58:43.249Z,37.93
2017-09-30T10:01:10.472Z,38.04
2017-09-30T10:03:37.646Z,38.07
2017-09-30T10:06:04.818Z,38.08
2017-09-30T10:08:32.210Z,38.04
2017-09-30T10:10:59.432Z,38.05
2017-09-30T10:13:26.608Z,38.05
2017-09-30T10:15:53.798Z,37.91
2017-09-30T10:18:21.035Z,37.90
2017-09-30T10:20:48.192Z,37.98
2017-09-30T10:23:15.401Z,37.91
2017-09-30T10:25:42.711Z,37.97
2017-09-30T10:28:09.887Z,37.98
2017-09-30T10:30:37.070Z,37.94
2017-09-30T10:33:04.294Z,37.91
2017-09-30T10:35:31.485Z,37.84
2017-09-30T10:37:58.733Z,37.86
2017-09-30T10:40:25.995Z,37.89
2017-09-30T10:42:53.225Z,37.91
2017-09-30T10:45:21.911Z,37.89
2017-09-30T10:47:49.174Z,37.89
2017-09-30T10:50:16.342Z,37.88
2017-09-30T10:52:43.620Z,37.88
2017-09-30T10:55:10.846Z,37.83
2017-09-30T10:57:37.998Z,37.81
2017-09-30T11:00:05.474Z,37.75
2017-09-30T11:02:32.648Z,37.77
2017-09-30T11:04:59.845Z,37.83
2017-09-30T11:07:27.078Z,37.83
2017-09-30T11:09:54.310Z,37.75
2017-09-30T11:12:21.548Z,37.71
2017-09-30T11:14:48.741Z,37.66
2017-09-30T11:17:15.981Z,37.67
2017-09-30T11:19:43.188Z,37.63
2017-09-30T11:22:10.355Z,37.65
2017-09-30T11:24:37.735Z,37.61
2017-09-30T11:27:04.897Z,37.57
2017-09-30T11:29:32.184Z,37.55
2017-09-30T11:32:00.327Z,37.57
2017-09-30T11:34:27.630Z,37.57
2017-09-30T11:36:55.341Z,37.43
2017-09-30T11:39:22.524Z,37.44
2017-09-30T11:41:49.907Z,37.43
2017-09-30T11:44:17.181Z,37.47
2017-09-30T11:46:44.358Z,37.54
2017-09-30T11:49:11.655Z,37.38
2017-09-30T11:51:38.909Z,37.54
2017-09-30T11:54:06.165Z,37.64
2017-09-30T11:56:33.405Z,37.51
2017-09-30T11:59:00.697Z,37.49
2017-09-30T12:01:28.011Z,37.42
2017-09-30T12:03:55.458Z,37.50
2017-09-30T12:06:22.648Z,37.41
2017-09-30T12:08:49.985Z,37.40
2017-09-30T12:11:17.246Z,37.26
2017-09-30T12:13:44.490Z,36.93
2017-09-30T12:16:11.746Z,36.73
2017-09-30T12:18:38.904Z,36.75
2017-09-30T12:21:06.093Z,36.65
2017-09-30T12:23:33.509Z,36.56
2017-09-30T12:26:00.979Z,36.50
2017-09-30T12:28:28.195Z,36.50
2017-09-30T12:30:55.387Z,36.49
2017-09-30T12:33:22.607Z,36.54
2017-09-30T12:35:49.797Z,36.52
2017-09-30T12:38:17.103Z,36.48
2017-09-30T12:40:44.461Z,36.53
2017-09-30T12:43:11.631Z,36.43
2017-09-30T12:45:39.099Z,36.42
2017-09-30T12:48:06.340Z,36.43
2017-09-30T12:50:33.546Z,36.48
2017-09-30T12:53:00.813Z,36.39
2017-09-30T12:55:27.957Z,36.68
2017-09-30T12:57:55.203Z,36.40
2017-09-30T13:00:22.388Z,36.55
2017-09-30T13:02:49.596Z,36.48
2017-09-30T13:05:16.784Z,36.55
2017-09-30T13:07:43.987Z,36.42
2017-09-30T13:10:11.133Z,36.40
2017-09-30T13:12:38.399Z,36.42
2017-09-30T13:15:05.538Z,36.43
2017-09-30T13:17:32.923Z,36.40
2017-09-30T13:20:00.127Z,36.39
2017-09-30T13:22:27.336Z,36.38
2017-09-30T13:24:54.527Z,36.36
2017-09-30T13:27:21.684Z,36.39
2017-09-30T13:29:48.920Z,36.46
2017-09-30T13:32:16.216Z,36.50
2017-09-30T13:34:43.531Z,36.31
2017-09-30T13:37:10.942Z,36.38
2017-09-30T13:39:38.190Z,36.35
2017-09-30T13:42:05.401Z,36.38
2017-09-30T13:44:32.768Z,36.34
2017-09-30T13:47:00.142Z,36.48
2017-09-30T13:49:27.580Z,36.35
2017-09-30T13:51:54.883Z,36.36
2017-09-30T13:54:22.104Z,36.37
2017-09-30T13:56:49.387Z,36.34
2017-09-30T13:59:16.599Z,36.34
2017-09-30T14:01:43.861Z,36.36
2017-09-30T14:04:11.084Z,36.37
2017-09-30T14:06:38.313Z,36.41
2017-09-30T14:09:05.608Z,36.35
2017-09-30T14:11:32.803Z,36.37
2017-09-30T14:14:00.076Z,36.38
2017-09-30T14:16:27.242Z,36.38
2017-09-30T14:18:54.499Z,36.37
2017-09-30T14:21:21.720Z,36.42
2017-09-30T14:23:48.891Z,36.37
2017-09-30T14:26:16.098Z,36.44
2017-09-30T14:28:43.342Z,36.37
2017-09-30T14:31:10.600Z,36.41
2017-09-30T14:33:37.826Z,36.43
2017-09-30T14:36:05.086Z,36.36
2017-09-30T14:38:32.283Z,36.46
2017-09-30T14:40:59.447Z,36.41
2017-09-30T14:43:26.673Z,36.48
2017-09-30T14:45:53.914Z,36.52
2017-09-30T14:48:21.422Z,36.50
2017-09-30T14:50:48.738Z,36.52
2017-09-30T14:53:15.985Z,36.53
2017-09-30T14:55:43.311Z,36.51
2017-09-30T14:58:10.537Z,36.48
2017-09-30T15:00:37.852Z,36.57
2017-09-30T15:03:05.707Z,36.57
2017-09-30T15:05:32.960Z,36.51
2017-09-30T15:08:00.406Z,36.52
2017-09-30T15:10:27.644Z,36.54
2017-09-30T15:12:55.011Z,36.57
2017-09-30T15:15:22.349Z,36.57
2017-09-30T15:17:49.717Z,36.55
2017-09-30T15:20:17.415Z,36.58
2017-09-30T15:22:44.658Z,36.62
2017-09-30T15:25:11.922Z,36.67
2017-09-30T15:27:39.102Z,36.63
2017-09-30T15:30:06.426Z,36.58
2017-09-30T15:32:33.775Z,36.65
2017-09-30T15:35:00.980Z,36.68
2017-09-30T15:37:28.244Z,36.69
2017-09-30T15:39:58.695Z,36.64
2017-09-30T15:42:25.926Z,36.71
2017-09-30T15:44:53.211Z,36.75
2017-09-30T15:47:20.409Z,36.80
2017-09-30T15:49:47.607Z,36.82
2017-09-30T15:52:14.863Z,37.01
2017-09-30T15:54:42.034Z,37.08
2017-09-30T15:57:09.213Z,37.20
2017-09-30T15:59:36.449Z,37.25
2017-09-30T16:02:03.625Z,37.33
2017-09-30T16:04:31.113Z,37.54
2017-09-30T16:06:58.372Z,37.57
2017-09-30T16:09:25.559Z,37.68
2017-09-30T16:11:52.943Z,37.75
2017-09-30T16:14:20.317Z,37.83
2017-09-30T16:16:47.725Z,37.90
2017-09-30T16:19:14.911Z,37.94
2017-09-30T16:21:42.219Z,38.07
2017-09-30T16:24:09.406Z,38.10
2017-09-30T16:26:36.580Z,38.22
2017-09-30T16:29:03.772Z,38.15
2017-09-30T16:31:31.070Z,38.23
2017-09-30T16:33:58.335Z,38.34
2017-09-30T16:36:25.636Z,38.38
2017-09-30T16:38:52.980Z,38.43
2017-09-30T16:41:20.142Z,38.45
2017-09-30T16:43:47.301Z,38.54
2017-09-30T16:46:14.545Z,38.64
2017-09-30T16:48:41.802Z,38.67
2017-09-30T16:51:08.983Z,38.69
2017-09-30T16:53:36.195Z,38.79
2017-09-30T16:56:03.549Z,38.81
2017-09-30T16:58:30.804Z,38.85
2017-09-30T17:00:58.097Z,38.95
2017-09-30T17:03:25.351Z,38.98
2017-09-30T17:05:52.598Z,39.09
2017-09-30T17:08:19.776Z,39.13
2017-09-30T17:10:47.035Z,39.13
2017-09-30T17:13:14.498Z,39.22
2017-09-30T17:15:41.773Z,39.19
2017-09-30T17:18:08.993Z,39.26
2017-09-30T17:20:36.158Z,39.31
2017-09-30T17:23:03.371Z,39.29
2017-09-30T17:25:30.603Z,39.37
2017-09-30T17:27:57.826Z,39.36
2017-09-30T17:30:25.068Z,39.42
2017-09-30T17:32:52.354Z,39.46
2017-09-30T17:35:19.513Z,39.48
2017-09-30T17:37:46.655Z,39.53
2017-09-30T17:40:13.971Z,39.49
2017-09-30T17:42:41.184Z,39.53
2017-09-30T17:45:08.390Z,39.61
2017-09-30T17:47:35.647Z,39.61
2017-09-30T17:50:02.923Z,39.66
2017-09-30T17:52:30.277Z,39.68
2017-09-30T17:54:57.512Z,39.70
2017-09-30T17:57:24.678Z,39.67
2017-09-30T17:59:52.031Z,39.66
2017-09-30T18:02:19.217Z,39.74
2017-09-30T18:04:46.407Z,39.79
2017-09-30T18:07:13.684Z,39.71
2017-09-30T18:09:40.909Z,39.72
2017-09-30T18:12:08.144Z,39.71
2017-09-30T19:12:08.454Z,39.68
2017-09-30T19:14:35.630Z,39.72
2017-09-30T19:17:02.956Z,39.70
2017-09-30T19:19:30.143Z,39.71
2017-09-30T20:25:47.338Z,39.62
2017-09-30T20:28:14.570Z,39.62
2017-09-30T20:30:41.775Z,39.61
2017-09-30T20:33:09.985Z,39.60
2017-09-30T20:35:37.235Z,39.70
2017-09-30T20:43:09.853Z,39.63
2017-09-30T20:48:08.871Z,39.65
2017-09-30T20:53:08.369Z,39.80
2017-09-30T20:55:35.670Z,39.72
2017-09-30T20:58:02.886Z,39.76
2017-09-30T21:00:30.156Z,39.76
2017-09-30T21:02:57.409Z,39.83
2017-09-30T21:05:37.632Z,39.73
2017-09-30T21:08:04.898Z,39.90
2017-09-30T21:10:32.158Z,39.80
2017-09-30T21:12:59.370Z,39.85
2017-09-30T21:15:26.722Z,39.88
2017-09-30T21:17:54.142Z,40.02
2017-09-30T21:20:21.294Z,39.99
2017-09-30T21:22:48.603Z,39.97
2017-09-30T21:48:06.222Z,40.31
2017-09-30T21:50:33.423Z,40.43
2017-09-30T21:53:00.660Z,40.48
2017-09-30T21:55:27.873Z,40.50
2017-09-30T21:57:55.059Z,40.53
2017-09-30T22:00:30.170Z,40.58
2017-09-30T22:02:57.387Z,40.62
2017-09-30T22:05:25.812Z,40.76
